Airfield :
LOGIN :

Register | Disclaimer

   EN    FR    IT 

 










Legend :    VFR   Marginal VFR   IFR   Intensive IFR   Very Intensive IFR
Visi :
Ceiling :
>= 8 km
>= 3000ft
5 to 8 km
1000 to 3000 ft
1500m to 5 km
500 to 1000 ft
800 to 1500m
200 to 500 ft
< 800m
< 200 ft
Symbols :   Thunderstorms  Fog  Heavy snow  Heavy precipitations  Wind > 20 kt
SIGMETs :     Misc.  Thunderstorms  Icing  Turbulence  Mountain Waves  Volcanic Ashes







- Airport Elevation : 465 ft
- IATA code : LEJ


EDDP - Leipzig Halle

CURRENT METAR :
  • 251120Z 14004KT 9999 -RA FEW005 BKN065 13/12 Q1021 NOSIG

EXPIRED METARs :
  • 251050Z 12003KT 080V180 9999 -RA FEW005 BKN055 13/12 Q1021 NOSIG
  • 251020Z 11005KT 9999 -RA FEW003 SCT020 BKN050 12/12 Q1021 NOSIG
  • 250950Z 12005KT 5000 -SHRA SCT003 SCT015CB BKN042 12/12 Q1021 TEMPO BKN005
  • 250920Z 04006KT 2400 -RA BR BKN002 13/13 Q1021 RERA BECMG 3000 -RA BKN005
  • 250850Z 36004KT 1100 R26L/0900U R08L/1300VP2000U -RADZ BCFG BR OVC001 13/13 Q1021 TEMPO 1500 BR -RA OVC004
  • 250820Z 35005KT 0500 R26L/0450V0600D R08L/0500N FG VV/// 13/13 Q1021 TEMPO 1200 -RA OVC002

TAF AMD TAF EDDP
Valid from the 25 at 09:00 until the 26 at 06:00 UTC


250934Z 2509/2606 03004KT 2500 -RA BR OVC003
BECMG 2509/2512 6000 BKN006
BECMG 2512/2514 BKN012
BECMG 2514/2516 BKN015
TEMPO 2516/2606 4000 -RA BR BKN010
PROB40
TEMPO 2602/2606 2000 BR BKN003
No reported NOTAMs for that airfield.



MET'MAP, your aeronautical weather chart ! - Copyright ORBIFLY December 2007 - Disclaimer

ORBIFLY MET'MAP TEAM :

Programming & Development : Alexandra Zaïnal
Concept & Development : Baudouin d'Aumeries
Co-Development & Prog : Marc-Olivier Méhu
Technical & hardware support : Manuel Goepfert

Contact : metmap@orbifly.com




SOURCES & CREDITS :

   NOAA